createdAt,value
2017-10-20T00:01:27.932Z,90.36
2017-10-20T00:03:54.216Z,90.19
2017-10-20T00:06:20.553Z,90.40
2017-10-20T00:08:46.875Z,90.42
2017-10-20T00:11:13.214Z,90.91
2017-10-20T00:13:39.557Z,91.02
2017-10-20T00:16:05.860Z,90.51
2017-10-20T00:18:32.205Z,90.41
2017-10-20T00:20:58.522Z,90.82
2017-10-20T00:23:24.870Z,90.75
2017-10-20T00:25:51.199Z,90.59
2017-10-20T00:28:17.651Z,90.52
2017-10-20T00:30:43.977Z,90.34
2017-10-20T00:33:10.304Z,90.23
2017-10-20T00:35:36.642Z,90.55
2017-10-20T00:38:02.903Z,90.36
2017-10-20T00:40:29.190Z,90.20
2017-10-20T00:42:55.528Z,90.25
2017-10-20T00:45:21.857Z,90.03
2017-10-20T00:47:48.201Z,89.88
2017-10-20T00:50:14.518Z,89.91
2017-10-20T00:52:40.862Z,90.62
2017-10-20T00:55:07.295Z,90.13
2017-10-20T00:57:33.623Z,90.06
2017-10-20T00:59:59.934Z,90.23
2017-10-20T01:02:26.274Z,90.05
2017-10-20T01:04:52.638Z,89.93
2017-10-20T01:07:18.954Z,90.10
2017-10-20T01:09:45.278Z,90.85
2017-10-20T01:12:11.668Z,90.83
2017-10-20T01:14:37.945Z,90.47
2017-10-20T01:17:04.288Z,90.19
2017-10-20T01:19:30.609Z,90.21
2017-10-20T01:21:56.923Z,91.01
2017-10-20T01:24:23.163Z,91.20
2017-10-20T01:26:49.516Z,91.09
2017-10-20T01:29:15.836Z,91.04
2017-10-20T01:31:42.194Z,90.83
2017-10-20T01:34:08.491Z,90.63
2017-10-20T01:36:34.837Z,90.87
2017-10-20T01:39:01.184Z,90.83
2017-10-20T01:41:27.476Z,90.29
2017-10-20T01:43:53.835Z,90.25
2017-10-20T01:46:20.149Z,90.24
2017-10-20T01:48:46.488Z,90.48
2017-10-20T01:51:12.816Z,91.82
2017-10-20T01:53:39.149Z,91.44
2017-10-20T01:56:05.490Z,90.96
2017-10-20T01:58:31.829Z,91.02
2017-10-20T02:00:58.157Z,90.95
2017-10-20T02:03:24.481Z,90.79
2017-10-20T02:05:50.807Z,90.56
2017-10-20T02:08:17.142Z,90.48
2017-10-20T02:10:43.483Z,90.32
2017-10-20T02:13:09.815Z,90.11
2017-10-20T02:15:36.164Z,90.16
2017-10-20T02:18:02.499Z,89.76
2017-10-20T02:20:28.801Z,89.72
2017-10-20T02:22:55.138Z,89.63
2017-10-20T02:25:21.479Z,89.82
2017-10-20T02:27:47.827Z,89.56
2017-10-20T02:30:14.124Z,89.51
2017-10-20T02:32:40.473Z,90.38
2017-10-20T02:35:06.810Z,90.23
2017-10-20T02:37:33.117Z,90.67
2017-10-20T02:39:59.462Z,90.83
2017-10-20T02:42:25.788Z,90.87
2017-10-20T02:44:52.117Z,90.86
2017-10-20T02:47:18.473Z,90.52
2017-10-20T02:49:45.417Z,90.65
2017-10-20T02:52:11.747Z,90.90
2017-10-20T02:54:38.038Z,90.76
2017-10-20T02:57:04.459Z,90.30
2017-10-20T02:59:30.748Z,90.25
2017-10-20T03:01:57.085Z,89.93
2017-10-20T03:04:23.397Z,90.08
2017-10-20T03:06:49.742Z,90.36
2017-10-20T03:09:16.054Z,90.24
2017-10-20T03:11:42.307Z,90.08
2017-10-20T03:14:08.628Z,91.02
2017-10-20T03:16:34.952Z,90.60
2017-10-20T03:19:01.301Z,90.45
2017-10-20T03:21:27.613Z,90.20
2017-10-20T03:23:53.942Z,90.11
2017-10-20T03:26:20.295Z,90.07
2017-10-20T03:28:46.609Z,89.95
2017-10-20T03:31:12.969Z,90.18
2017-10-20T03:33:39.271Z,90.39
2017-10-20T03:36:05.628Z,91.06
2017-10-20T03:38:31.952Z,92.03
2017-10-20T03:40:58.282Z,91.76
2017-10-20T03:43:24.618Z,91.69
2017-10-20T03:45:50.939Z,91.56
2017-10-20T03:48:17.284Z,91.79
2017-10-20T03:50:43.613Z,91.50
2017-10-20T03:53:09.962Z,91.19
2017-10-20T03:55:36.263Z,91.06
2017-10-20T03:58:02.619Z,90.97
2017-10-20T04:00:28.944Z,91.08
2017-10-20T04:02:55.265Z,91.03
2017-10-20T04:05:21.609Z,91.38
2017-10-20T04:07:47.939Z,90.92
2017-10-20T04:10:14.253Z,91.00
2017-10-20T04:12:40.595Z,91.44
2017-10-20T04:15:06.948Z,92.02
2017-10-20T04:17:33.297Z,91.99
2017-10-20T04:19:59.600Z,92.01
2017-10-20T04:22:25.887Z,91.54
2017-10-20T04:24:52.142Z,91.33
2017-10-20T04:27:18.498Z,90.41
2017-10-20T04:29:44.831Z,89.85
2017-10-20T04:32:11.162Z,89.94
2017-10-20T04:34:37.491Z,90.35
2017-10-20T04:37:04.680Z,90.06
2017-10-20T04:39:30.986Z,89.92
2017-10-20T04:41:57.296Z,90.07
2017-10-20T04:44:23.654Z,90.33
2017-10-20T04:46:50.074Z,90.29
2017-10-20T04:49:16.408Z,90.50
2017-10-20T04:51:42.743Z,90.75
2017-10-20T04:54:09.061Z,91.15
2017-10-20T04:56:35.402Z,91.44
2017-10-20T04:59:01.731Z,91.67
2017-10-20T05:01:27.957Z,91.62
2017-10-20T05:03:54.307Z,91.79
2017-10-20T05:06:20.541Z,91.90
2017-10-20T05:08:46.803Z,90.95
2017-10-20T05:11:13.160Z,90.12
2017-10-20T05:13:39.420Z,90.34
2017-10-20T05:16:05.750Z,90.26
2017-10-20T05:18:32.087Z,90.00
2017-10-20T05:20:58.407Z,88.90
2017-10-20T05:23:25.407Z,88.15
2017-10-20T05:25:51.688Z,86.17
2017-10-20T05:28:18.019Z,86.69
2017-10-20T05:30:44.363Z,84.43
2017-10-20T05:33:10.758Z,84.68
2017-10-20T05:35:37.114Z,80.98
2017-10-20T05:38:03.481Z,77.24
2017-10-20T05:40:29.748Z,69.79
2017-10-20T05:43:02.901Z,67.03
2017-10-20T05:45:29.130Z,60.19
2017-10-20T05:47:55.426Z,59.97
2017-10-20T05:50:21.691Z,57.88
2017-10-20T05:52:47.948Z,55.76
2017-10-20T05:55:14.228Z,56.37
2017-10-20T05:57:40.577Z,54.88
2017-10-20T06:00:06.811Z,53.27
2017-10-20T06:02:33.054Z,52.41
2017-10-20T06:04:59.304Z,52.58
2017-10-20T06:07:25.586Z,54.63
2017-10-20T06:09:51.850Z,53.64
2017-10-20T06:12:18.117Z,52.48
2017-10-20T06:14:44.349Z,49.56
2017-10-20T06:17:10.579Z,53.99
2017-10-20T06:19:36.856Z,54.09
2017-10-20T06:22:03.100Z,53.28
2017-10-20T06:24:29.337Z,56.82
2017-10-20T06:26:55.566Z,56.55
2017-10-20T06:29:21.805Z,57.99
2017-10-20T06:31:48.074Z,58.31
2017-10-20T06:34:14.320Z,55.41
2017-10-20T06:36:40.544Z,51.42
2017-10-20T06:39:06.800Z,48.26
2017-10-20T06:41:33.054Z,46.10
2017-10-20T06:43:59.339Z,45.05
2017-10-20T06:46:25.590Z,45.18
2017-10-20T06:48:51.830Z,48.43
2017-10-20T06:51:18.094Z,48.64
2017-10-20T06:53:44.360Z,50.11
2017-10-20T06:56:10.646Z,50.80
2017-10-20T06:58:36.896Z,50.13
2017-10-20T07:01:03.130Z,50.86
2017-10-20T07:03:29.391Z,47.76
2017-10-20T07:05:55.636Z,49.98
2017-10-20T07:08:21.950Z,48.18
2017-10-20T07:10:48.197Z,47.25
2017-10-20T07:13:14.458Z,44.93
2017-10-20T07:15:40.712Z,43.72
2017-10-20T07:18:06.983Z,42.57
2017-10-20T07:20:33.285Z,41.57
2017-10-20T07:22:59.544Z,39.75
2017-10-20T07:25:25.793Z,40.38
2017-10-20T07:27:52.055Z,40.80
2017-10-20T07:30:18.312Z,39.52
2017-10-20T07:32:44.619Z,38.96
2017-10-20T07:35:10.986Z,39.03
2017-10-20T07:37:37.234Z,40.39
2017-10-20T07:40:03.491Z,39.03
2017-10-20T07:42:29.770Z,38.36
2017-10-20T07:44:56.060Z,38.63
2017-10-20T07:47:22.301Z,37.47
2017-10-20T07:49:48.552Z,38.43
2017-10-20T07:52:14.780Z,37.87
2017-10-20T07:54:41.071Z,38.74
2017-10-20T07:57:07.344Z,38.90
2017-10-20T07:59:33.606Z,38.53
2017-10-20T08:01:59.854Z,37.52
2017-10-20T08:04:26.092Z,38.04
2017-10-20T08:06:53.131Z,37.66
2017-10-20T08:09:19.429Z,39.08
2017-10-20T08:11:45.666Z,37.04
2017-10-20T08:14:11.914Z,36.75
2017-10-20T08:16:38.182Z,35.30
2017-10-20T08:21:27.446Z,34.24
2017-10-20T08:23:53.707Z,33.31
2017-10-20T08:26:19.960Z,33.61
2017-10-20T08:28:46.214Z,34.10
2017-10-20T08:31:12.485Z,35.15
2017-10-20T08:33:38.753Z,35.15
2017-10-20T08:36:04.991Z,34.79
2017-10-20T08:38:31.236Z,34.46
2017-10-20T08:40:57.483Z,34.66
2017-10-20T08:43:23.739Z,33.89
2017-10-20T08:45:50.022Z,34.02
2017-10-20T08:48:16.322Z,34.46
2017-10-20T08:50:42.605Z,34.57
2017-10-20T08:53:08.894Z,34.18
2017-10-20T08:55:35.195Z,33.36
2017-10-20T08:58:01.554Z,32.69
2017-10-20T09:00:27.858Z,32.70
2017-10-20T09:02:54.188Z,32.09
2017-10-20T09:05:20.517Z,31.98
2017-10-20T09:07:46.850Z,30.89
2017-10-20T09:10:13.223Z,30.65
2017-10-20T09:12:39.508Z,31.41
2017-10-20T09:15:05.822Z,32.33
2017-10-20T09:17:32.126Z,31.13
2017-10-20T09:19:58.603Z,30.07
2017-10-20T09:22:24.986Z,30.34
2017-10-20T09:24:51.354Z,30.04
2017-10-20T09:27:17.680Z,31.70
2017-10-20T09:29:43.998Z,30.14
2017-10-20T09:32:10.281Z,30.80
2017-10-20T09:34:36.596Z,30.03
2017-10-20T09:37:02.908Z,29.95
2017-10-20T09:39:29.211Z,28.50
2017-10-20T09:41:55.525Z,29.06
2017-10-20T09:44:21.821Z,29.92
2017-10-20T09:46:48.142Z,28.38
2017-10-20T09:49:14.531Z,29.66
2017-10-20T09:51:40.875Z,30.02
2017-10-20T09:54:07.185Z,30.88
2017-10-20T09:56:33.465Z,31.10
2017-10-20T09:58:59.797Z,32.44
2017-10-20T10:01:26.082Z,32.58
2017-10-20T10:03:52.355Z,33.12
2017-10-20T10:06:18.684Z,33.17
2017-10-20T10:08:44.998Z,31.99
2017-10-20T10:11:11.355Z,31.86
2017-10-20T10:13:37.656Z,32.80
2017-10-20T10:16:04.025Z,31.98
2017-10-20T10:18:30.362Z,32.98
2017-10-20T10:20:56.715Z,32.65
2017-10-20T10:23:23.172Z,30.96
2017-10-20T10:25:49.462Z,30.74
2017-10-20T10:28:15.789Z,30.31
2017-10-20T10:30:42.089Z,31.76
2017-10-20T10:33:08.402Z,31.85
2017-10-20T10:35:34.744Z,30.75
2017-10-20T10:38:01.036Z,30.14
2017-10-20T10:40:27.333Z,30.66
2017-10-20T10:42:53.646Z,31.55
2017-10-20T10:45:19.930Z,31.72
2017-10-20T10:47:46.322Z,32.06
2017-10-20T10:50:12.636Z,32.53
2017-10-20T10:52:38.924Z,31.84
2017-10-20T10:55:05.208Z,31.69
2017-10-20T10:57:31.517Z,31.47
2017-10-20T10:59:57.854Z,30.79
2017-10-20T11:02:24.288Z,30.43
2017-10-20T11:04:50.606Z,30.90
2017-10-20T11:07:16.913Z,31.28
2017-10-20T11:09:43.199Z,31.37
2017-10-20T11:12:09.498Z,31.13
2017-10-20T11:14:35.887Z,30.03
2017-10-20T11:17:02.243Z,31.04
2017-10-20T11:19:28.549Z,30.89
2017-10-20T11:21:54.900Z,30.55
2017-10-20T11:24:21.446Z,29.42
2017-10-20T11:26:47.826Z,29.80
2017-10-20T11:29:14.129Z,29.84
2017-10-20T11:31:40.432Z,30.77
2017-10-20T11:34:06.830Z,30.32
2017-10-20T11:36:33.116Z,30.00
2017-10-20T11:38:59.538Z,29.42
2017-10-20T11:41:25.848Z,30.36
2017-10-20T11:43:52.151Z,31.58
2017-10-20T11:46:18.452Z,30.60
2017-10-20T11:48:44.751Z,29.91
2017-10-20T11:53:27.078Z,29.85
2017-10-20T11:55:53.353Z,30.25
2017-10-20T11:58:19.687Z,28.84
2017-10-20T12:00:45.981Z,29.26
2017-10-20T12:03:12.265Z,29.38
2017-10-20T12:05:38.584Z,28.18
2017-10-20T12:08:04.874Z,28.08
2017-10-20T12:10:31.308Z,28.39
2017-10-20T12:12:57.600Z,27.91
2017-10-20T12:15:23.920Z,28.11
2017-10-20T12:17:50.228Z,28.10
2017-10-20T12:20:16.505Z,27.47
2017-10-20T12:22:42.833Z,25.89
2017-10-20T12:25:09.158Z,25.14
2017-10-20T12:27:35.493Z,25.10
2017-10-20T12:30:01.824Z,26.38
2017-10-20T12:32:28.114Z,26.99
2017-10-20T12:34:54.414Z,25.32
2017-10-20T12:37:20.762Z,24.83
2017-10-20T12:39:47.096Z,24.38
2017-10-20T12:42:13.403Z,25.38
2017-10-20T12:44:39.733Z,26.39
2017-10-20T12:47:06.063Z,25.89
2017-10-20T12:49:32.400Z,26.65
2017-10-20T12:51:58.713Z,26.50
2017-10-20T12:54:25.043Z,26.81
2017-10-20T12:56:51.350Z,27.13
2017-10-20T12:59:17.638Z,27.23
2017-10-20T13:01:43.921Z,26.97
2017-10-20T13:04:10.184Z,27.12
2017-10-20T13:06:36.431Z,27.59
2017-10-20T13:09:02.702Z,28.05
2017-10-20T13:11:28.949Z,27.94
2017-10-20T13:13:55.172Z,27.92
2017-10-20T13:16:21.503Z,28.37
2017-10-20T13:18:47.740Z,27.15
2017-10-20T13:21:14.019Z,27.39
2017-10-20T13:23:40.246Z,28.70
2017-10-20T13:26:06.493Z,28.86
2017-10-20T13:28:32.719Z,28.43
2017-10-20T13:30:59.036Z,28.23
2017-10-20T13:33:25.329Z,28.32
2017-10-20T13:35:51.609Z,28.13
2017-10-20T13:38:17.982Z,28.85
2017-10-20T13:40:44.258Z,29.56
2017-10-20T13:43:10.520Z,28.99
2017-10-20T13:45:36.785Z,29.42
2017-10-20T13:48:03.127Z,29.45
2017-10-20T13:50:29.386Z,29.00
2017-10-20T13:52:55.615Z,28.29
2017-10-20T13:55:21.847Z,28.58
2017-10-20T13:57:48.163Z,28.67
2017-10-20T14:00:14.401Z,28.84
2017-10-20T14:02:40.642Z,29.48
2017-10-20T14:05:06.966Z,29.48
2017-10-20T14:07:33.226Z,29.94
2017-10-20T14:09:59.483Z,30.09
2017-10-20T14:12:25.847Z,30.44
2017-10-20T14:14:52.112Z,31.43
2017-10-20T14:17:18.386Z,31.67
2017-10-20T14:19:44.625Z,31.08
2017-10-20T14:22:10.874Z,30.56
2017-10-20T14:24:37.109Z,30.31
2017-10-20T14:27:03.354Z,29.98
2017-10-20T14:29:29.580Z,29.68
2017-10-20T14:31:55.816Z,29.16
2017-10-20T14:34:22.099Z,30.04
2017-10-20T14:36:48.343Z,32.05
2017-10-20T14:39:14.576Z,32.07
2017-10-20T14:41:40.841Z,33.29
2017-10-20T14:44:07.062Z,33.60
2017-10-20T14:46:33.362Z,35.16
2017-10-20T14:48:59.620Z,34.08
2017-10-20T14:51:25.918Z,32.24
2017-10-20T14:53:52.180Z,31.63
2017-10-20T14:56:18.406Z,32.49
2017-10-20T14:58:44.698Z,33.54
2017-10-20T15:01:10.956Z,34.21
2017-10-20T15:03:37.299Z,35.20
2017-10-20T15:06:04.205Z,36.09
2017-10-20T15:08:30.466Z,37.16
2017-10-20T15:10:56.791Z,38.14
2017-10-20T15:13:23.193Z,38.72
2017-10-20T15:15:49.481Z,39.50
2017-10-20T15:18:15.728Z,40.75
2017-10-20T15:20:42.104Z,41.61
2017-10-20T15:23:08.493Z,42.23
2017-10-20T15:25:34.791Z,43.41
2017-10-20T15:28:01.158Z,43.90
2017-10-20T15:30:27.461Z,45.49
2017-10-20T15:32:53.820Z,47.87
2017-10-20T15:35:20.156Z,48.52
2017-10-20T15:37:46.577Z,49.48
2017-10-20T15:40:12.911Z,50.37
2017-10-20T15:42:39.220Z,51.32
2017-10-20T15:45:05.490Z,52.16
2017-10-20T15:47:31.794Z,52.79
2017-10-20T15:49:58.090Z,53.22
2017-10-20T15:52:24.373Z,53.33
2017-10-20T15:54:50.697Z,53.88
2017-10-20T15:57:16.948Z,54.54
2017-10-20T15:59:43.211Z,55.08
2017-10-20T16:02:09.500Z,55.58
2017-10-20T16:04:35.756Z,56.31
2017-10-20T16:07:02.032Z,56.46
2017-10-20T16:09:28.309Z,56.67
2017-10-20T16:11:54.556Z,56.71
2017-10-20T16:14:20.882Z,57.02
2017-10-20T16:16:47.128Z,57.57
2017-10-20T16:19:13.385Z,58.53
2017-10-20T16:21:39.630Z,60.16
2017-10-20T16:24:05.873Z,62.41
2017-10-20T16:26:32.157Z,60.66
2017-10-20T16:28:58.445Z,58.62
2017-10-20T16:31:24.702Z,59.78
2017-10-20T16:33:50.942Z,58.94
2017-10-20T16:36:17.240Z,59.60
2017-10-20T16:38:43.568Z,60.14
2017-10-20T16:41:09.926Z,60.23
2017-10-20T16:43:36.174Z,59.47
2017-10-20T16:46:02.437Z,60.16
2017-10-20T16:48:28.721Z,60.87
2017-10-20T16:50:55.009Z,60.78
2017-10-20T16:53:21.273Z,61.31
2017-10-20T16:55:47.554Z,62.65
2017-10-20T16:58:13.845Z,63.30
2017-10-20T17:00:40.110Z,64.17
2017-10-20T17:03:06.437Z,63.78
2017-10-20T17:05:32.692Z,64.04
2017-10-20T17:07:59.021Z,64.40
2017-10-20T17:10:25.284Z,64.55
2017-10-20T17:12:51.546Z,64.93
2017-10-20T17:15:17.870Z,65.69
2017-10-20T17:17:44.227Z,66.44
2017-10-20T17:20:10.475Z,65.57
2017-10-20T17:22:36.733Z,66.01
2017-10-20T17:25:03.093Z,66.68
2017-10-20T17:27:29.398Z,68.30
2017-10-20T17:29:55.640Z,67.67
2017-10-20T17:32:21.905Z,67.78
2017-10-20T17:34:48.200Z,68.30
2017-10-20T17:37:14.501Z,69.11
2017-10-20T17:39:40.756Z,69.47
2017-10-20T17:42:07.046Z,69.65
2017-10-20T17:44:33.326Z,70.12
2017-10-20T17:46:59.575Z,70.98
2017-10-20T17:49:26.772Z,71.35
2017-10-20T17:51:53.092Z,72.75
2017-10-20T17:54:19.351Z,73.69
2017-10-20T17:56:45.645Z,73.35
2017-10-20T17:59:11.900Z,72.97
2017-10-20T18:01:38.187Z,73.92
2017-10-20T18:04:04.444Z,74.34
2017-10-20T18:06:30.743Z,74.37
2017-10-20T18:08:57.011Z,75.32
2017-10-20T18:11:23.267Z,75.15
2017-10-20T18:13:49.566Z,75.76
2017-10-20T18:16:15.814Z,76.19
2017-10-20T18:18:42.096Z,76.56
2017-10-20T18:21:08.431Z,76.75
2017-10-20T18:23:34.749Z,76.88
2017-10-20T18:26:01.048Z,77.57
2017-10-20T18:28:27.362Z,77.31
2017-10-20T18:30:53.608Z,77.70
2017-10-20T18:33:19.862Z,78.61
2017-10-20T18:35:46.105Z,78.72
2017-10-20T18:38:12.413Z,78.89
2017-10-20T18:40:38.709Z,78.33
2017-10-20T18:43:04.964Z,78.81
2017-10-20T18:45:31.281Z,78.96
2017-10-20T18:47:58.372Z,79.27
2017-10-20T18:50:24.773Z,80.36
2017-10-20T18:52:51.058Z,80.90
2017-10-20T18:55:17.305Z,80.45
2017-10-20T18:57:43.558Z,80.50
2017-10-20T19:00:09.827Z,80.37
2017-10-20T19:02:36.139Z,80.48
2017-10-20T19:05:02.412Z,80.74
2017-10-20T19:07:28.667Z,80.79
2017-10-20T19:09:54.960Z,80.38
2017-10-20T19:12:21.239Z,80.65
2017-10-20T19:14:47.554Z,80.38
2017-10-20T19:17:13.821Z,79.83
2017-10-20T19:19:40.105Z,80.03
2017-10-20T19:22:06.327Z,80.35
2017-10-20T19:24:32.558Z,81.63
2017-10-20T19:26:58.844Z,82.09
2017-10-20T19:29:25.129Z,81.83
2017-10-20T19:31:51.402Z,81.78
2017-10-20T19:34:17.680Z,82.25
2017-10-20T19:36:47.836Z,82.64
2017-10-20T19:39:14.162Z,82.46
2017-10-20T19:41:40.429Z,82.97
2017-10-20T19:44:06.666Z,83.72
2017-10-20T19:46:32.928Z,84.18
2017-10-20T19:48:59.187Z,84.06
2017-10-20T19:51:25.474Z,84.17
2017-10-20T19:53:52.314Z,84.10
2017-10-20T19:56:18.585Z,84.04
2017-10-20T19:58:45.794Z,83.59
2017-10-20T20:01:12.051Z,83.74
2017-10-20T20:03:38.297Z,84.35
2017-10-20T20:06:04.588Z,85.38
2017-10-20T20:08:30.827Z,85.45
2017-10-20T20:10:57.251Z,85.05
2017-10-20T20:13:23.543Z,84.91
2017-10-20T20:15:49.804Z,85.22
2017-10-20T20:18:16.044Z,85.19
2017-10-20T20:20:42.292Z,86.00
2017-10-20T20:23:08.619Z,85.89
2017-10-20T20:25:34.864Z,86.10
2017-10-20T20:28:01.171Z,86.15
2017-10-20T20:30:27.440Z,86.17
2017-10-20T20:32:53.689Z,86.25
2017-10-20T20:35:20.018Z,86.19
2017-10-20T20:37:46.262Z,85.81
2017-10-20T20:40:12.500Z,86.17
2017-10-20T20:42:38.748Z,86.64
2017-10-20T20:45:05.026Z,86.39
2017-10-20T20:47:31.338Z,86.09
2017-10-20T20:49:57.583Z,86.12
2017-10-20T20:52:24.460Z,85.98
2017-10-20T20:54:50.737Z,85.55
2017-10-20T20:57:16.951Z,85.71
2017-10-20T20:59:43.235Z,85.53
2017-10-20T21:02:09.484Z,85.74
2017-10-20T21:04:35.748Z,85.83
2017-10-20T21:07:02.039Z,85.96
2017-10-20T21:09:29.290Z,86.51
2017-10-20T21:11:55.534Z,87.11
2017-10-20T21:14:21.787Z,87.07
2017-10-20T21:16:48.042Z,87.54
2017-10-20T21:19:14.311Z,86.61
2017-10-20T21:21:40.570Z,86.37
2017-10-20T21:24:07.692Z,86.39
2017-10-20T21:26:34.010Z,86.55
2017-10-20T21:29:00.250Z,86.31
2017-10-20T21:31:26.521Z,86.39
2017-10-20T21:33:52.746Z,86.96
2017-10-20T21:36:18.989Z,86.91
2017-10-20T21:38:45.228Z,87.04
2017-10-20T21:41:11.505Z,86.75
2017-10-20T21:43:37.771Z,86.79
2017-10-20T21:46:04.002Z,87.35
2017-10-20T21:48:30.228Z,87.25
2017-10-20T21:50:56.480Z,87.11
2017-10-20T21:53:22.729Z,87.19
2017-10-20T21:55:48.999Z,87.21
2017-10-20T21:58:15.222Z,86.99
2017-10-20T22:00:41.478Z,86.98
2017-10-20T22:03:07.691Z,86.63
2017-10-20T22:05:33.942Z,86.75
2017-10-20T22:08:00.220Z,87.25
2017-10-20T22:10:26.433Z,87.53
2017-10-20T22:12:52.657Z,88.78
2017-10-20T22:15:18.891Z,88.97
2017-10-20T22:17:45.135Z,89.30
2017-10-20T22:20:11.402Z,89.06
2017-10-20T22:22:37.649Z,89.15
2017-10-20T22:25:03.885Z,89.33
2017-10-20T22:27:30.123Z,89.37
2017-10-20T22:29:56.407Z,89.14
2017-10-20T22:32:22.666Z,88.61
2017-10-20T22:34:48.907Z,88.53
2017-10-20T22:37:15.154Z,88.68
2017-10-20T22:39:41.392Z,88.71
2017-10-20T22:42:07.622Z,89.57
2017-10-20T22:44:33.878Z,90.36
2017-10-20T22:47:00.124Z,89.72
2017-10-20T22:49:26.359Z,89.14
2017-10-20T22:51:52.596Z,89.08
2017-10-20T22:54:18.841Z,89.00
2017-10-20T22:56:45.117Z,89.03
2017-10-20T22:59:11.336Z,89.17
2017-10-20T23:01:37.555Z,89.34
2017-10-20T23:04:03.804Z,89.42
2017-10-20T23:06:30.060Z,89.73
2017-10-20T23:08:56.421Z,89.39
2017-10-20T23:11:22.654Z,89.19
2017-10-20T23:13:48.875Z,89.20
2017-10-20T23:16:15.096Z,89.31
2017-10-20T23:18:41.320Z,89.43
2017-10-20T23:21:07.591Z,89.59
2017-10-20T23:23:33.829Z,89.58
2017-10-20T23:26:00.072Z,89.06
2017-10-20T23:28:26.398Z,89.03
2017-10-20T23:30:52.634Z,89.00
2017-10-20T23:33:18.959Z,89.48
2017-10-20T23:35:45.292Z,89.99
2017-10-20T23:38:11.623Z,89.39
2017-10-20T23:40:37.952Z,89.63
2017-10-20T23:43:04.270Z,89.40
2017-10-20T23:45:30.615Z,89.27
2017-10-20T23:47:56.930Z,89.29
2017-10-20T23:50:23.179Z,89.31
2017-10-20T23:52:49.522Z,89.56
2017-10-20T23:55:15.848Z,89.47
2017-10-20T23:57:42.184Z,89.41
